createdAt,value
2023-01-19T00:00:30.306Z,74.05
2023-01-19T00:02:56.739Z,73.83
2023-01-19T00:05:23.091Z,73.74
2023-01-19T00:07:49.419Z,73.58
2023-01-19T00:10:16.209Z,73.81
2023-01-19T00:12:42.607Z,72.62
2023-01-19T00:15:09.493Z,73.50
2023-01-19T00:17:35.914Z,73.40
2023-01-19T00:20:03.763Z,73.54
2023-01-19T00:22:30.101Z,72.82
2023-01-19T00:24:56.485Z,72.33
2023-01-19T00:27:22.810Z,73.10
2023-01-19T00:29:49.342Z,73.60
2023-01-19T00:32:17.700Z,74.71
2023-01-19T00:34:49.320Z,74.53
2023-01-19T00:37:17.165Z,73.99
2023-01-19T00:39:43.781Z,73.55
2023-01-19T00:42:31.680Z,73.11
2023-01-19T00:44:58.193Z,72.49
2023-01-19T00:47:24.520Z,72.28
2023-01-19T00:49:50.844Z,72.13
2023-01-19T00:52:17.182Z,71.55
2023-01-19T00:54:43.550Z,71.37
2023-01-19T00:57:09.890Z,71.77
2023-01-19T00:59:36.226Z,72.34
2023-01-19T01:02:02.914Z,72.06
2023-01-19T01:04:29.888Z,72.20
2023-01-19T01:06:56.217Z,71.29
2023-01-19T01:09:23.453Z,71.24
2023-01-19T01:11:49.826Z,71.11
2023-01-19T01:14:18.004Z,70.87
2023-01-19T01:16:44.619Z,69.71
2023-01-19T01:19:11.135Z,69.37
2023-01-19T01:21:37.481Z,69.82
2023-01-19T01:24:04.231Z,69.92
2023-01-19T01:26:30.553Z,68.96
2023-01-19T01:28:56.900Z,70.08
2023-01-19T01:31:23.247Z,69.19
2023-01-19T01:33:49.767Z,69.72
2023-01-19T01:36:16.571Z,70.71
2023-01-19T01:38:43.140Z,70.51
2023-01-19T01:41:09.661Z,69.67
2023-01-19T01:44:06.177Z,69.42
2023-01-19T01:46:32.716Z,69.37
2023-01-19T01:49:16.051Z,68.26
2023-01-19T01:51:47.156Z,68.96
2023-01-19T01:54:27.901Z,69.49
2023-01-19T01:56:59.508Z,69.54
2023-01-19T01:59:38.970Z,70.85
2023-01-19T02:02:28.678Z,70.93
2023-01-19T02:05:04.193Z,72.54
2023-01-19T02:07:59.656Z,71.13
2023-01-19T02:10:44.964Z,72.19
2023-01-19T02:13:21.328Z,72.26
2023-01-19T02:15:50.107Z,72.75
2023-01-19T02:18:17.103Z,72.90
2023-01-19T02:20:52.136Z,73.81
2023-01-19T02:23:42.652Z,73.51
2023-01-19T02:26:13.047Z,74.15
2023-01-19T02:28:44.551Z,74.49
2023-01-19T02:31:11.418Z,74.94
2023-01-19T02:33:37.890Z,75.72
2023-01-19T02:36:05.935Z,75.77
2023-01-19T02:38:32.937Z,76.36
2023-01-19T02:41:02.966Z,76.21
2023-01-19T02:43:30.390Z,76.47
2023-01-19T02:45:57.278Z,76.29
2023-01-19T02:48:23.643Z,76.99
2023-01-19T02:50:53.595Z,76.42
2023-01-19T02:53:57.247Z,76.33
2023-01-19T02:56:54.886Z,76.40
2023-01-19T02:59:23.871Z,77.42
2023-01-19T03:02:08.861Z,77.76
2023-01-19T03:04:45.696Z,78.19
2023-01-19T03:07:24.629Z,77.88
2023-01-19T03:10:08.080Z,78.09
2023-01-19T03:12:50.463Z,77.56
2023-01-19T03:15:25.848Z,77.45
2023-01-19T03:17:53.819Z,77.39
2023-01-19T03:20:24.610Z,77.79
2023-01-19T03:23:00.497Z,77.76
2023-01-19T03:25:31.043Z,77.79
2023-01-19T03:27:57.915Z,76.85
2023-01-19T03:30:29.219Z,77.58
2023-01-19T03:33:05.034Z,77.89
2023-01-19T03:35:35.534Z,77.55
2023-01-19T03:38:06.063Z,77.63
2023-01-19T03:40:34.227Z,77.56
2023-01-19T03:43:02.518Z,76.76
2023-01-19T03:45:33.344Z,77.79
2023-01-19T03:47:59.838Z,77.22
2023-01-19T03:50:29.516Z,76.78
2023-01-19T03:53:15.959Z,76.44
2023-01-19T03:55:46.443Z,75.19
2023-01-19T03:58:13.200Z,75.18
2023-01-19T04:00:39.882Z,75.60
2023-01-19T04:03:11.772Z,74.80
2023-01-19T04:05:39.399Z,74.17
2023-01-19T04:08:08.556Z,73.64
2023-01-19T04:10:34.884Z,72.97
2023-01-19T04:13:02.213Z,73.13
2023-01-19T04:15:29.613Z,72.40
2023-01-19T04:18:01.748Z,73.48
2023-01-19T04:20:29.126Z,73.29
2023-01-19T04:22:59.518Z,73.92
2023-01-19T04:25:26.427Z,74.04
2023-01-19T04:27:53.292Z,73.24
2023-01-19T04:30:19.906Z,73.87
2023-01-19T04:32:46.770Z,74.59
2023-01-19T04:35:13.147Z,74.70
2023-01-19T04:37:40.017Z,76.16
2023-01-19T04:40:07.160Z,75.42
2023-01-19T04:42:33.472Z,76.88
2023-01-19T04:44:59.789Z,77.22
2023-01-19T04:47:26.167Z,77.88
2023-01-19T04:49:52.529Z,78.13
2023-01-19T04:52:19.379Z,77.83
2023-01-19T04:54:45.714Z,77.50
2023-01-19T04:57:12.070Z,76.80
2023-01-19T04:59:38.401Z,76.68
2023-01-19T05:02:04.771Z,77.14
2023-01-19T05:04:31.103Z,76.73
2023-01-19T05:06:58.218Z,76.68
2023-01-19T05:09:25.779Z,76.38
2023-01-19T05:11:52.137Z,76.58
2023-01-19T05:14:18.783Z,76.22
2023-01-19T05:16:45.153Z,75.84
2023-01-19T05:19:11.523Z,75.87
2023-01-19T05:21:37.939Z,76.34
2023-01-19T05:24:04.368Z,76.42
2023-01-19T05:26:30.713Z,76.44
2023-01-19T05:28:57.187Z,77.49
2023-01-19T05:31:23.616Z,77.66
2023-01-19T05:33:50.064Z,76.89
2023-01-19T05:36:16.435Z,76.92
2023-01-19T05:38:42.763Z,77.00
2023-01-19T05:41:09.100Z,76.78
2023-01-19T05:43:35.411Z,76.69
2023-01-19T05:46:04.586Z,76.11
2023-01-19T05:48:31.594Z,75.24
2023-01-19T05:50:59.488Z,75.86
2023-01-19T05:53:26.149Z,75.65
2023-01-19T05:55:52.509Z,75.31
2023-01-19T05:58:19.071Z,74.87
2023-01-19T06:00:45.464Z,75.62
2023-01-19T06:03:12.437Z,75.57
2023-01-19T06:05:39.395Z,75.31
2023-01-19T06:08:05.981Z,75.37
2023-01-19T06:10:32.339Z,75.00
2023-01-19T06:12:59.395Z,75.26
2023-01-19T06:15:25.965Z,74.88
2023-01-19T06:17:52.306Z,75.14
2023-01-19T06:20:18.656Z,75.05
2023-01-19T06:22:44.989Z,74.64
2023-01-19T06:25:11.826Z,74.90
2023-01-19T06:27:39.713Z,75.19
2023-01-19T06:30:06.758Z,74.62
2023-01-19T06:32:33.096Z,74.69
2023-01-19T06:34:59.425Z,73.86
2023-01-19T06:37:27.167Z,73.50
2023-01-19T06:39:53.724Z,73.97
2023-01-19T06:42:20.061Z,75.52
2023-01-19T06:44:47.894Z,75.53
2023-01-19T06:47:16.379Z,75.03
2023-01-19T06:49:43.427Z,75.01
2023-01-19T06:52:11.367Z,73.73
2023-01-19T06:54:37.850Z,72.84
2023-01-19T06:57:04.484Z,72.09
2023-01-19T06:59:31.660Z,71.69
2023-01-19T07:01:58.919Z,72.23
2023-01-19T07:04:26.963Z,72.13
2023-01-19T07:06:53.428Z,73.73
2023-01-19T07:09:20.445Z,74.32
2023-01-19T07:11:48.065Z,74.87
2023-01-19T07:14:15.395Z,75.73
2023-01-19T07:16:41.827Z,76.31
2023-01-19T07:19:10.550Z,75.89
2023-01-19T07:21:40.065Z,75.73
2023-01-19T07:24:06.605Z,75.80
2023-01-19T07:26:32.998Z,75.34
2023-01-19T07:28:59.364Z,74.43
2023-01-19T07:31:25.929Z,74.96
2023-01-19T07:33:52.391Z,74.80
2023-01-19T07:36:18.740Z,74.45
2023-01-19T07:38:45.091Z,74.30
2023-01-19T07:41:11.923Z,73.66
2023-01-19T07:43:38.283Z,73.39
2023-01-19T07:46:06.550Z,72.95
2023-01-19T07:48:33.159Z,73.05
2023-01-19T07:51:01.237Z,73.15
2023-01-19T07:53:27.621Z,72.86
2023-01-19T07:55:56.343Z,73.14
2023-01-19T07:58:24.476Z,72.41
2023-01-19T08:00:50.862Z,73.38
2023-01-19T08:03:17.744Z,73.77
2023-01-19T08:05:45.236Z,73.45
2023-01-19T08:08:12.413Z,72.97
2023-01-19T08:10:38.733Z,73.06
2023-01-19T08:13:05.111Z,73.05
2023-01-19T08:15:31.639Z,73.13
2023-01-19T08:18:00.470Z,72.95
2023-01-19T08:20:28.853Z,73.12
2023-01-19T08:22:59.994Z,73.41
2023-01-19T08:25:46.966Z,72.75
2023-01-19T08:28:15.617Z,72.56
2023-01-19T08:30:44.300Z,72.05
2023-01-19T08:33:13.962Z,71.75
2023-01-19T08:35:42.542Z,71.95
2023-01-19T08:38:10.307Z,71.76
2023-01-19T08:40:39.059Z,72.28
2023-01-19T08:43:08.923Z,72.31
2023-01-19T08:45:37.127Z,72.40
2023-01-19T08:48:06.120Z,72.19
2023-01-19T08:50:33.782Z,72.19
2023-01-19T08:53:02.352Z,71.17
2023-01-19T08:55:29.948Z,71.13
2023-01-19T08:57:57.867Z,71.83
2023-01-19T09:00:27.417Z,70.77
2023-01-19T09:02:54.692Z,70.76
2023-01-19T09:05:21.141Z,70.75
2023-01-19T09:07:48.327Z,70.75
2023-01-19T09:10:15.684Z,69.77
2023-01-19T09:12:43.396Z,68.92
2023-01-19T09:15:10.835Z,68.31
2023-01-19T09:17:37.370Z,67.42
2023-01-19T09:20:05.812Z,66.28
2023-01-19T09:22:33.334Z,65.60
2023-01-19T09:25:00.229Z,66.26
2023-01-19T09:27:26.553Z,66.52
2023-01-19T09:29:53.980Z,67.21
2023-01-19T09:32:21.247Z,68.34
2023-01-19T09:34:47.870Z,68.41
2023-01-19T09:37:16.013Z,68.03
2023-01-19T09:39:42.530Z,68.32
2023-01-19T09:42:23.316Z,67.50
2023-01-19T09:44:50.928Z,67.71
2023-01-19T09:47:23.392Z,67.88
2023-01-19T09:49:58.257Z,67.04
2023-01-19T09:52:24.740Z,67.59
2023-01-19T09:54:56.533Z,67.32
2023-01-19T09:57:25.009Z,67.56
2023-01-19T09:59:51.743Z,67.18
2023-01-19T10:02:20.761Z,67.66
2023-01-19T10:05:22.588Z,67.29
2023-01-19T10:07:58.600Z,67.23
2023-01-19T10:10:27.925Z,66.98
2023-01-19T10:13:21.821Z,66.50
2023-01-19T10:16:14.266Z,66.05
2023-01-19T10:18:51.404Z,65.37
2023-01-19T10:21:22.549Z,65.41
2023-01-19T10:24:14.278Z,65.54
2023-01-19T10:26:45.339Z,65.12
2023-01-19T10:29:21.012Z,64.97
2023-01-19T10:31:51.674Z,64.70
2023-01-19T10:34:23.491Z,64.23
2023-01-19T10:36:58.934Z,64.97
2023-01-19T10:39:25.463Z,65.63
2023-01-19T10:41:53.413Z,64.90
2023-01-19T10:44:28.889Z,64.32
2023-01-19T10:46:58.330Z,63.40
2023-01-19T10:49:27.650Z,63.50
2023-01-19T10:51:56.033Z,63.59
2023-01-19T10:54:23.944Z,63.74
2023-01-19T10:56:57.017Z,64.28
2023-01-19T10:59:50.920Z,63.93
2023-01-19T11:02:21.119Z,63.42
2023-01-19T11:04:51.113Z,63.46
2023-01-19T11:07:23.729Z,60.39
2023-01-19T11:10:22.354Z,60.97
2023-01-19T11:12:56.987Z,60.94
2023-01-19T11:15:48.707Z,60.99
2023-01-19T11:18:29.809Z,61.43
2023-01-19T11:20:59.369Z,61.04
2023-01-19T11:23:28.866Z,60.60
2023-01-19T11:26:00.354Z,60.74
2023-01-19T11:28:40.340Z,60.34
2023-01-19T11:31:15.976Z,59.58
2023-01-19T11:33:49.776Z,59.87
2023-01-19T11:36:21.019Z,59.36
2023-01-19T11:38:50.538Z,59.25
2023-01-19T11:41:31.681Z,59.58
2023-01-19T11:44:09.230Z,59.63
2023-01-19T11:46:39.597Z,59.41
2023-01-19T11:49:13.762Z,59.12
2023-01-19T11:52:15.150Z,58.05
2023-01-19T11:54:48.215Z,58.38
2023-01-19T11:57:17.072Z,58.45
2023-01-19T11:59:44.415Z,57.61
2023-01-19T12:02:28.507Z,56.60
2023-01-19T12:05:06.212Z,56.48
2023-01-19T12:07:35.176Z,55.96
2023-01-19T12:10:26.259Z,56.71
2023-01-19T12:12:53.395Z,55.53
2023-01-19T12:15:36.498Z,56.60
2023-01-19T12:18:05.387Z,57.14
2023-01-19T12:20:39.052Z,56.96
2023-01-19T12:23:11.168Z,56.73
2023-01-19T12:25:44.234Z,56.71
2023-01-19T12:28:14.596Z,54.94
2023-01-19T12:30:41.553Z,55.00
2023-01-19T12:33:40.451Z,53.49
2023-01-19T12:36:36.220Z,54.25
2023-01-19T12:39:02.473Z,53.92
2023-01-19T12:41:37.618Z,52.34
2023-01-19T12:44:16.291Z,53.11
2023-01-19T12:46:45.946Z,53.69
2023-01-19T12:49:21.032Z,53.41
2023-01-19T12:51:48.993Z,52.96
2023-01-19T12:54:31.436Z,53.45
2023-01-19T12:57:08.208Z,52.98
2023-01-19T12:59:37.224Z,53.51
2023-01-19T13:02:25.456Z,53.22
2023-01-19T13:05:32.504Z,54.05
2023-01-19T13:08:02.418Z,53.92
2023-01-19T13:10:53.643Z,53.93
2023-01-19T13:13:21.319Z,54.34
2023-01-19T13:15:47.818Z,53.44
2023-01-19T13:18:23.026Z,54.03
2023-01-19T13:21:00.212Z,53.60
2023-01-19T13:23:27.425Z,53.01
2023-01-19T13:26:01.396Z,52.71
2023-01-19T13:28:36.413Z,53.26
2023-01-19T13:31:03.711Z,52.77
2023-01-19T13:33:40.864Z,52.67
2023-01-19T13:36:20.809Z,52.89
2023-01-19T13:38:50.827Z,53.39
2023-01-19T13:41:22.345Z,53.56
2023-01-19T13:43:57.268Z,52.81
2023-01-19T13:46:26.279Z,52.53
2023-01-19T13:49:00.055Z,50.88
2023-01-19T13:51:26.843Z,50.77
2023-01-19T13:53:54.744Z,51.09
2023-01-19T13:56:23.269Z,52.75
2023-01-19T13:59:10.105Z,51.54
2023-01-19T14:01:38.389Z,50.30
2023-01-19T14:04:05.279Z,50.87
2023-01-19T14:06:47.647Z,50.85
2023-01-19T14:09:18.944Z,49.52
2023-01-19T14:11:47.485Z,49.65
2023-01-19T14:14:25.989Z,49.56
2023-01-19T14:16:52.740Z,50.59
2023-01-19T14:19:19.419Z,49.85
2023-01-19T14:21:46.000Z,48.86
2023-01-19T14:24:19.544Z,48.61
2023-01-19T14:26:48.320Z,47.96
2023-01-19T14:29:19.678Z,48.59
2023-01-19T14:31:52.767Z,49.27
2023-01-19T14:34:36.116Z,48.29
2023-01-19T14:37:04.886Z,48.91
2023-01-19T14:39:34.236Z,47.38
2023-01-19T14:42:04.040Z,48.13
2023-01-19T14:44:40.875Z,46.78
2023-01-19T14:47:25.158Z,46.92
2023-01-19T14:49:51.612Z,47.88
2023-01-19T14:52:54.031Z,48.92
2023-01-19T14:55:25.370Z,47.60
2023-01-19T14:57:51.696Z,49.18
2023-01-19T15:00:19.937Z,50.15
2023-01-19T15:02:47.286Z,48.86
2023-01-19T15:05:14.423Z,50.47
2023-01-19T15:07:43.500Z,49.90
2023-01-19T15:10:21.122Z,49.58
2023-01-19T15:12:49.002Z,48.85
2023-01-19T15:15:25.643Z,49.47
2023-01-19T15:17:54.187Z,50.17
2023-01-19T15:20:23.005Z,51.06
2023-01-19T15:22:49.919Z,52.40
2023-01-19T15:25:21.037Z,53.59
2023-01-19T15:27:48.443Z,53.68
2023-01-19T15:30:27.704Z,53.53
2023-01-19T15:32:54.025Z,53.14
2023-01-19T15:35:22.963Z,53.90
2023-01-19T15:37:50.397Z,53.38
2023-01-19T15:40:18.284Z,53.65
2023-01-19T15:42:45.240Z,54.08
2023-01-19T15:45:36.187Z,54.15
2023-01-19T15:48:08.088Z,53.58
2023-01-19T15:50:39.519Z,53.51
2023-01-19T15:53:07.123Z,54.38
2023-01-19T15:55:33.468Z,53.99
2023-01-19T15:58:02.494Z,54.52
2023-01-19T16:00:31.598Z,55.56
2023-01-19T16:02:58.905Z,55.75
2023-01-19T16:05:37.430Z,56.02
2023-01-19T16:08:08.638Z,55.44
2023-01-19T16:10:35.254Z,55.60
2023-01-19T16:13:01.595Z,55.57
2023-01-19T16:15:27.959Z,54.91
2023-01-19T16:17:54.282Z,55.91
2023-01-19T16:20:20.600Z,56.11
2023-01-19T16:22:46.946Z,55.38
2023-01-19T16:25:13.308Z,55.30
2023-01-19T16:27:39.678Z,55.26
2023-01-19T16:30:06.699Z,55.50
2023-01-19T16:32:33.779Z,54.87
2023-01-19T16:35:00.118Z,55.25
2023-01-19T16:37:28.044Z,55.63
2023-01-19T16:39:54.510Z,55.77
2023-01-19T16:42:20.938Z,55.85
2023-01-19T16:45:05.388Z,55.67
2023-01-19T16:47:31.732Z,54.41
2023-01-19T16:49:58.036Z,54.69
2023-01-19T16:52:24.382Z,55.72
2023-01-19T16:54:54.487Z,56.48
2023-01-19T16:57:20.816Z,56.79
2023-01-19T16:59:47.256Z,57.16
2023-01-19T17:02:13.732Z,57.06
2023-01-19T17:04:40.088Z,58.00
2023-01-19T17:07:06.423Z,57.38
2023-01-19T17:09:33.919Z,56.98
2023-01-19T17:12:00.266Z,56.46
2023-01-19T17:14:26.728Z,57.15
2023-01-19T17:16:53.053Z,56.59
2023-01-19T17:19:22.127Z,55.54
2023-01-19T17:21:49.885Z,55.21
2023-01-19T17:24:17.015Z,54.82
2023-01-19T17:26:45.791Z,53.82
2023-01-19T17:29:12.214Z,53.68
2023-01-19T17:31:38.829Z,53.46
2023-01-19T17:34:05.634Z,53.11
2023-01-19T17:36:32.851Z,53.46
2023-01-19T17:39:01.008Z,53.58
2023-01-19T17:41:30.596Z,53.64
2023-01-19T17:43:57.987Z,54.04
2023-01-19T17:46:26.649Z,53.42
2023-01-19T17:48:54.561Z,53.04
2023-01-19T17:51:22.918Z,52.20
2023-01-19T17:53:50.244Z,51.53
2023-01-19T17:56:18.772Z,51.50
2023-01-19T17:58:45.127Z,51.07
2023-01-19T18:01:14.934Z,51.07
2023-01-19T18:03:42.283Z,50.86
2023-01-19T18:06:09.312Z,51.34
2023-01-19T18:08:41.952Z,50.69
2023-01-19T18:11:09.417Z,50.43
2023-01-19T18:13:37.208Z,51.19
2023-01-19T18:16:09.701Z,51.42
2023-01-19T18:18:37.128Z,50.88
2023-01-19T18:21:06.657Z,51.01
2023-01-19T18:23:33.479Z,51.77
2023-01-19T18:26:05.907Z,51.98
2023-01-19T18:28:32.599Z,52.00
2023-01-19T18:30:59.739Z,52.50
2023-01-19T18:33:27.529Z,52.70
2023-01-19T18:35:54.452Z,52.43
2023-01-19T18:38:20.899Z,52.55
2023-01-19T18:40:47.245Z,52.89
2023-01-19T18:43:13.675Z,52.64
2023-01-19T18:45:44.271Z,53.70
2023-01-19T18:48:10.590Z,53.53
2023-01-19T18:50:37.607Z,53.67
2023-01-19T18:53:03.942Z,53.74
2023-01-19T18:55:30.477Z,53.99
2023-01-19T18:57:56.799Z,53.63
2023-01-19T19:00:23.239Z,54.02
2023-01-19T19:02:49.576Z,54.05
2023-01-19T19:05:15.983Z,54.72
2023-01-19T19:07:42.311Z,54.50
2023-01-19T19:10:09.528Z,54.29
2023-01-19T19:12:35.847Z,54.32
2023-01-19T19:15:02.235Z,55.11
2023-01-19T19:17:28.576Z,55.10
2023-01-19T19:19:54.911Z,55.09
2023-01-19T19:22:21.303Z,54.99
2023-01-19T19:24:47.625Z,54.98
2023-01-19T19:27:14.310Z,55.52
2023-01-19T19:29:41.356Z,55.01
2023-01-19T19:32:07.713Z,54.88
2023-01-19T19:34:34.087Z,54.88
2023-01-19T19:37:01.371Z,55.34
2023-01-19T19:39:28.396Z,55.55
2023-01-19T19:41:54.723Z,56.03
2023-01-19T19:44:21.164Z,55.56
2023-01-19T19:46:47.721Z,55.88
2023-01-19T19:49:15.289Z,55.51
2023-01-19T19:51:41.872Z,55.72
2023-01-19T19:54:08.835Z,56.22
2023-01-19T19:56:35.201Z,56.51
2023-01-19T19:59:01.559Z,56.68
2023-01-19T20:01:32.898Z,56.94
2023-01-19T20:04:07.793Z,56.77
2023-01-19T20:06:38.611Z,56.92
2023-01-19T20:09:06.529Z,56.34
2023-01-19T20:11:33.323Z,55.96
2023-01-19T20:13:59.835Z,56.26
2023-01-19T20:16:26.410Z,56.41
2023-01-19T20:18:54.208Z,57.05
2023-01-19T20:21:26.909Z,57.70
2023-01-19T20:23:55.097Z,58.02
2023-01-19T20:26:25.108Z,57.41
2023-01-19T20:28:51.944Z,57.58
2023-01-19T20:31:21.479Z,57.75
2023-01-19T20:33:49.795Z,58.06
2023-01-19T20:36:17.012Z,57.96
2023-01-19T20:38:43.720Z,58.59
2023-01-19T20:41:11.695Z,58.34
2023-01-19T20:43:38.543Z,58.50
2023-01-19T20:46:05.560Z,58.83
2023-01-19T20:48:32.197Z,58.45
2023-01-19T20:51:04.371Z,57.94
2023-01-19T20:53:31.542Z,58.86
2023-01-19T20:55:57.979Z,58.51
2023-01-19T20:58:24.424Z,58.17
2023-01-19T21:00:50.928Z,58.45
2023-01-19T21:03:17.471Z,58.92
2023-01-19T21:05:46.571Z,58.32
2023-01-19T21:08:14.653Z,59.18
2023-01-19T21:10:41.700Z,59.26
2023-01-19T21:13:08.192Z,58.74
2023-01-19T21:15:34.745Z,59.35
2023-01-19T21:18:01.759Z,59.25
2023-01-19T21:20:32.861Z,59.60
2023-01-19T21:22:59.243Z,59.46
2023-01-19T21:25:25.564Z,59.11
2023-01-19T21:27:51.872Z,59.90
2023-01-19T21:30:18.502Z,59.93
2023-01-19T21:32:44.914Z,60.18
2023-01-19T21:35:11.517Z,60.17
2023-01-19T21:37:38.064Z,59.79
2023-01-19T21:40:05.012Z,60.17
2023-01-19T21:42:31.394Z,59.26
2023-01-19T21:44:57.780Z,60.31
2023-01-19T21:47:24.125Z,59.61
2023-01-19T21:49:50.439Z,60.40
2023-01-19T21:52:16.807Z,60.24
2023-01-19T21:54:43.335Z,60.26
2023-01-19T21:57:09.751Z,60.41
2023-01-19T21:59:36.087Z,60.80
2023-01-19T22:02:02.574Z,61.05
2023-01-19T22:04:29.694Z,61.05
2023-01-19T22:06:56.026Z,60.83
2023-01-19T22:09:22.420Z,60.73
2023-01-19T22:11:48.742Z,60.95
2023-01-19T22:14:15.077Z,61.25
2023-01-19T22:16:41.471Z,61.55
2023-01-19T22:19:12.799Z,61.32
2023-01-19T22:21:39.871Z,60.95
2023-01-19T22:24:06.721Z,60.88
2023-01-19T22:26:34.085Z,61.07
2023-01-19T22:29:01.585Z,61.02
2023-01-19T22:31:29.377Z,60.98
2023-01-19T22:33:56.627Z,60.81
2023-01-19T22:36:25.695Z,60.84
2023-01-19T22:38:54.463Z,60.99
2023-01-19T22:41:23.543Z,61.11
2023-01-19T22:43:52.625Z,61.53
2023-01-19T22:46:20.568Z,61.84
2023-01-19T22:48:48.300Z,62.20
2023-01-19T22:51:15.047Z,61.77
2023-01-19T22:53:41.394Z,62.15
2023-01-19T22:56:32.329Z,62.48
2023-01-19T22:58:59.471Z,62.61
2023-01-19T23:01:37.615Z,62.78
2023-01-19T23:04:05.324Z,62.78
2023-01-19T23:06:34.420Z,62.57
2023-01-19T23:09:04.780Z,62.31
2023-01-19T23:11:39.729Z,62.56
2023-01-19T23:14:07.911Z,62.07
2023-01-19T23:16:34.782Z,62.38
2023-01-19T23:19:01.365Z,63.09
2023-01-19T23:21:30.340Z,62.33
2023-01-19T23:24:02.108Z,63.05
2023-01-19T23:26:30.671Z,62.64
2023-01-19T23:28:59.370Z,62.47
2023-01-19T23:31:28.340Z,62.65
2023-01-19T23:33:57.326Z,62.86
2023-01-19T23:36:25.990Z,62.66
2023-01-19T23:38:54.474Z,62.97
2023-01-19T23:41:21.659Z,63.42
2023-01-19T23:43:48.503Z,63.57
2023-01-19T23:46:16.544Z,62.98
2023-01-19T23:48:43.377Z,63.23
2023-01-19T23:51:12.391Z,63.28
2023-01-19T23:53:38.809Z,63.88
2023-01-19T23:56:32.699Z,63.44
2023-01-19T23:59:11.582Z,64.03
